^^
Station Historical Data
 
Daily Summary for May 30, 2020 Units:  English    Metric   Both
Daily Weekly Monthly Yearly Custom
  Current: High: Low: Average:
Temperature: 78.4 °F 80.3 °F 57 °F 70.5 °F
Dew Point: 53.1 °F 56.2 °F 43.5 °F 51.3 °F
Humidity: 41.6% 78% 35% 52%
Wind Speed: 1.7mph 15mph 0mph 5.7mph
Wind Gust: 4mph 24mph - -
WindNE - - South
Pressure: 30.14 in 30.19 in 30.11 in -
Precipitation: 0.00 in      
Historical Graphs
 
 
Tabular Data for May 30, 2020
Time Temperature Dew Point Pressure Wind Wind Speed Wind Gust Humidity Rainfall Rate (Hourly) solar
00:04 72.3 °F 45.9 °F 30.13 in NW 12 mph 17 mph 39% 0.00 in 0 W/m2
00:09 72.5 °F 45.4 °F 30.13 in NW 8 mph 15 mph 38% 0.00 in 0 W/m2
00:14 72.6 °F 45.5 °F 30.14 in NNW 7 mph 15 mph 38% 0.00 in 0 W/m2
00:19 72.5 °F 45.4 °F 30.14 in NNW 5 mph 14 mph 38% 0.00 in 0 W/m2
00:24 72.5 °F 45.4 °F 30.14 in NW 6 mph 10 mph 38% 0.00 in 0 W/m2
00:29 72.5 °F 44.7 °F 30.13 in NW 8 mph 14 mph 37% 0.00 in 0 W/m2
00:34 72.6 °F 44.8 °F 30.13 in NW 10 mph 20 mph 37% 0.00 in 0 W/m2
00:39 72.7 °F 44.9 °F 30.12 in WNW 12 mph 18 mph 37% 0.00 in 0 W/m2
00:44 73 °F 44.5 °F 30.12 in WNW 15 mph 22 mph 36% 0.00 in 0 W/m2
00:49 73.5 °F 44.9 °F 30.12 in WNW 12 mph 19 mph 36% 0.00 in 0 W/m2
00:54 73.2 °F 44.6 °F 30.12 in WNW 15 mph 20 mph 36% 0.00 in 0 W/m2
00:59 73.4 °F 44.1 °F 30.12 in WNW 15 mph 20 mph 35% 0.00 in 0 W/m2
01:04 73.5 °F 44.2 °F 30.12 in WNW 12 mph 24 mph 35% 0.00 in 0 W/m2
01:09 73.5 °F 44.2 °F 30.12 in NW 9 mph 19 mph 35% 0.00 in 0 W/m2
01:14 73.1 °F 44.5 °F 30.12 in NW 12 mph 18 mph 36% 0.00 in 0 W/m2
01:19 73 °F 44.5 °F 30.11 in NW 9 mph 18 mph 36% 0.00 in 0 W/m2
01:24 72.7 °F 44.2 °F 30.12 in NW 12 mph 17 mph 36% 0.00 in 0 W/m2
01:29 72.5 °F 44 °F 30.12 in NW 9 mph 15 mph 36% 0.00 in 0 W/m2
01:34 72.2 °F 44.5 °F 30.12 in WNW 9 mph 15 mph 37% 0.00 in 0 W/m2
01:39 72.1 °F 44.4 °F 30.12 in WNW 13 mph 19 mph 37% 0.00 in 0 W/m2
01:44 72.8 °F 43.5 °F 30.11 in WNW 15 mph 20 mph 35% 0.00 in 0 W/m2
01:49 73.6 °F 44.2 °F 30.11 in WNW 12 mph 19 mph 35% 0.00 in 0 W/m2
01:54 73.6 °F 44.2 °F 30.12 in WNW 10 mph 18 mph 35% 0.00 in 0 W/m2
01:59 73.5 °F 44.2 °F 30.11 in NW 12 mph 16 mph 35% 0.00 in 0 W/m2
02:04 73.2 °F 43.9 °F 30.12 in NW 9 mph 17 mph 35% 0.00 in 0 W/m2
02:09 72.9 °F 43.6 °F 30.12 in NW 9 mph 16 mph 35% 0.00 in 0 W/m2
02:14 72.8 °F 44.3 °F 30.13 in NNW 10 mph 12 mph 36% 0.00 in 0 W/m2
02:19 72 °F 44.3 °F 30.13 in North 5 mph 12 mph 37% 0.00 in 0 W/m2
02:24 71.2 °F 45.6 °F 30.14 in NNE 3 mph 11 mph 40% 0.00 in 0 W/m2
02:29 69.8 °F 46.9 °F 30.14 in NE 6 mph 9 mph 44% 0.00 in 0 W/m2
02:34 68.7 °F 48.2 °F 30.14 in NE 3 mph 11 mph 48% 0.00 in 0 W/m2
02:39 68.1 °F 48.2 °F 30.14 in NE 2 mph 7 mph 49% 0.00 in 0 W/m2
02:44 67.7 °F 48.9 °F 30.15 in North 3 mph 6 mph 51% 0.00 in 0 W/m2
02:49 66.7 °F 49.5 °F 30.15 in NW 2 mph 10 mph 54% 0.00 in 0 W/m2
02:54 65.4 °F 50.2 °F 30.15 in WNW 5 mph 8 mph 58% 0.00 in 0 W/m2
02:59 64.3 °F 50.1 °F 30.15 in WNW 3 mph 8 mph 60% 0.00 in 0 W/m2
03:04 63.6 °F 50.3 °F 30.14 in WNW 3 mph 8 mph 62% 0.00 in 0 W/m2
03:09 63.3 °F 50.5 °F 30.14 in NW 5 mph 7 mph 63% 0.00 in 0 W/m2
03:14 63.1 °F 50.3 °F 30.14 in NNW 3 mph 9 mph 63% 0.00 in 0 W/m2
03:19 63 °F 50.6 °F 30.14 in NNW 6 mph 10 mph 64% 0.00 in 0 W/m2
03:24 62.9 °F 51 °F 30.15 in NNW 5 mph 9 mph 65% 0.00 in 0 W/m2
03:29 62.8 °F 50.9 °F 30.15 in NNW 7 mph 11 mph 65% 0.00 in 0 W/m2
03:34 62.8 °F 50.9 °F 30.15 in NNW 5 mph 10 mph 65% 0.00 in 0 W/m2
03:39 62.8 °F 50.9 °F 30.15 in NNW 6 mph 10 mph 65% 0.00 in 0 W/m2
03:44 62.6 °F 50.7 °F 30.15 in NW 6 mph 10 mph 65% 0.00 in 0 W/m2
03:49 62.4 °F 50.9 °F 30.15 in NNW 5 mph 13 mph 66% 0.00 in 0 W/m2
03:54 62.1 °F 51 °F 30.15 in NNW 8 mph 12 mph 67% 0.00 in 0 W/m2
03:59 62 °F 50.9 °F 30.16 in NNW 8 mph 12 mph 67% 0.00 in 0 W/m2
04:04 61.9 °F 51.2 °F 30.16 in NNW 3 mph 11 mph 68% 0.00 in 0 W/m2
04:09 61.8 °F 51.1 °F 30.16 in North 3 mph 11 mph 68% 0.00 in 0 W/m2
04:14 61.7 °F 51 °F 30.16 in NNW 5 mph 9 mph 68% 0.00 in 0 W/m2
04:19 61.5 °F 51.2 °F 30.16 in NNW 3 mph 10 mph 69% 0.00 in 0 W/m2
04:24 61.3 °F 51 °F 30.16 in NNW 3 mph 10 mph 69% 0.00 in 0 W/m2
04:29 61.1 °F 51.2 °F 30.16 in North 3 mph 6 mph 70% 0.00 in 0 W/m2
04:34 60.9 °F 51 °F 30.16 in NNW 3 mph 4 mph 70% 0.00 in 0 W/m2
04:39 60.6 °F 51.1 °F 30.16 in NW 3 mph 6 mph 71% 0.00 in 0 W/m2
04:44 60.3 °F 50.9 °F 30.16 in NW 2 mph 4 mph 71% 0.00 in 0 W/m2
04:49 59.9 °F 50.8 °F 30.16 in NW 2 mph 4 mph 72% 0.00 in 0 W/m2
04:54 59.6 °F 50.6 °F 30.17 in WNW 3 mph 4 mph 72% 0.00 in 0 W/m2
04:59 59.2 °F 50.5 °F 30.17 in WNW 2 mph 4 mph 73% 0.00 in 0 W/m2
05:04 58.9 °F 50.3 °F 30.17 in West 2 mph 3 mph 73% 0.00 in 0 W/m2
05:09 58.5 °F 49.9 °F 30.17 in WNW 3 mph 6 mph 73% 0.00 in 0 W/m2
05:14 58.1 °F 49.9 °F 30.17 in WNW 2 mph 3 mph 74% 0.00 in 0 W/m2
05:19 57.9 °F 50 °F 30.17 in WNW 2 mph 3 mph 75% 0.00 in 0 W/m2
05:24 57.7 °F 49.8 °F 30.17 in West 3 mph 4 mph 75% 0.00 in 0 W/m2
05:29 57.5 °F 50 °F 30.17 in WSW 1 mph 4 mph 76% 0.00 in 0 W/m2
05:34 57.5 °F 50 °F 30.17 in WSW 3 mph 4 mph 76% 0.00 in 0 W/m2
05:39 57.4 °F 50.2 °F 30.17 in West 2 mph 4 mph 77% 0.00 in 0 W/m2
05:44 57.5 °F 50.3 °F 30.17 in West 2 mph 4 mph 77% 0.00 in 5 W/m2
05:49 57.6 °F 50.4 °F 30.16 in WNW 3 mph 4 mph 77% 0.00 in 11 W/m2
05:54 57.4 °F 49.9 °F 30.16 in WNW 3 mph 6 mph 76% 0.00 in 18 W/m2
05:59 57.1 °F 50 °F 30.16 in West 3 mph 7 mph 77% 0.00 in 23 W/m2
06:04 57 °F 49.9 °F 30.16 in West 1 mph 6 mph 77% 0.00 in 19 W/m2
06:09 57 °F 50.2 °F 30.16 in West 3 mph 3 mph 78% 0.00 in 46 W/m2
06:14 57.1 °F 50.3 °F 30.17 in West 3 mph 5 mph 78% 0.00 in 62 W/m2
06:19 57.5 °F 50.7 °F 30.16 in WSW 2 mph 5 mph 78% 0.00 in 76 W/m2
06:24 57.9 °F 51.1 °F 30.17 in WSW 2 mph 3 mph 78% 0.00 in 90 W/m2
06:29 58.1 °F 50.9 °F 30.17 in West 3 mph 3 mph 77% 0.00 in 102 W/m2
06:34 58.3 °F 51.1 °F 30.17 in WNW 2 mph 4 mph 77% 0.00 in 125 W/m2
06:39 58.6 °F 51.1 °F 30.17 in West 2 mph 4 mph 76% 0.00 in 144 W/m2
06:44 59 °F 51.8 °F 30.17 in West 1 mph 2 mph 77% 0.00 in 158 W/m2
06:49 59.8 °F 52.2 °F 30.17 in Calm   2 mph 76% 0.00 in 179 W/m2
06:54 60.2 °F 51.9 °F 30.17 in SSW 2 mph 3 mph 74% 0.00 in 192 W/m2
06:59 60.8 °F 51.7 °F 30.17 in SW 2 mph 2 mph 72% 0.00 in 93 W/m2
07:04 61.3 °F 52.2 °F 30.17 in WSW 2 mph 3 mph 72% 0.00 in 35 W/m2
07:09 61.5 °F 51.4 °F 30.17 in WNW 2.3 mph 1.6 mph 69.5% 0.00 in 40 W/m2
07:14 61.6 °F 50.8 °F 30.17 in WSW 3.3 mph 3.5 mph 67.7% 0.00 in 46 W/m2
07:19 61.9 °F 50.3 °F 30.17 in West 2.8 mph 4 mph 65.8% 0.00 in 156 W/m2
07:24 62.1 °F 50.2 °F 30.17 in West 1.2 mph 3 mph 65% 0.00 in 313 W/m2
07:29 62.3 °F 50.7 °F 30.17 in West 2.8 mph 2.5 mph 65.7% 0.00 in 308 W/m2
07:34 62.7 °F 50.9 °F 30.17 in West 1.9 mph 3 mph 65.3% 0.00 in 339 W/m2
07:39 63.4 °F 51.9 °F 30.17 in West 0.7 mph 2 mph 66.3% 0.00 in 353 W/m2
07:44 64.2 °F 52.1 °F 30.17 in SW 1.1 mph 1.9 mph 64.7% 0.00 in 369 W/m2
07:49 65.3 °F 52 °F 30.17 in South 2.7 mph 3.1 mph 62% 0.00 in 385 W/m2
07:54 66.7 °F 51.1 °F 30.17 in South 3.3 mph 4 mph 57.2% 0.00 in 403 W/m2
07:59 68 °F 51.4 °F 30.17 in East 5.3 mph 7.6 mph 55.3% 0.00 in 418 W/m2
08:04 68.7 °F 52.6 °F 30.17 in NE 5.1 mph 9 mph 56.5% 0.00 in 432 W/m2
08:09 69.1 °F 51.3 °F 30.17 in NNE 2.3 mph 7 mph 53.2% 0.00 in 446 W/m2
08:14 69.9 °F 52.3 °F 30.18 in ENE 4.9 mph 4.6 mph 53.7% 0.00 in 466 W/m2
08:19 70.2 °F 53 °F 30.17 in ENE 3.5 mph 7 mph 54.5% 0.00 in 482 W/m2
08:24 70.6 °F 53 °F 30.17 in ENE 2.6 mph 5 mph 53.8% 0.00 in 499 W/m2
08:29 71.2 °F 53.5 °F 30.18 in ENE 3.1 mph 4 mph 53.5% 0.00 in 513 W/m2
08:34 71.8 °F 53 °F 30.18 in East 3.1 mph 3 mph 51.5% 0.00 in 529 W/m2
08:39 72.3 °F 52.7 °F 30.18 in SE 3.3 mph 3.1 mph 50% 0.00 in 545 W/m2
08:44 72.9 °F 53.1 °F 30.18 in ESE 2.4 mph 4 mph 49.8% 0.00 in 564 W/m2
08:49 73.8 °F 51.9 °F 30.18 in SSE 3.7 mph 4.6 mph 46.2% 0.00 in 585 W/m2
08:54 74.4 °F 50.4 °F 30.18 in SE 3.8 mph 5 mph 43% 0.00 in 610 W/m2
08:59 74.9 °F 49.5 °F 30.18 in SSE 3.3 mph 5 mph 41% 0.00 in 647 W/m2
09:04 75.5 °F 52.5 °F 30.18 in ENE 3.5 mph 4 mph 44.6% 0.00 in 707 W/m2
09:09 75.7 °F 53.8 °F 30.18 in ENE 4.9 mph 5.5 mph 46.6% 0.00 in 782 W/m2
09:14 75.5 °F 54.6 °F 30.18 in East 5.3 mph 8 mph 48.4% 0.00 in 796 W/m2
09:19 75.2 °F 54 °F 30.18 in East 5.1 mph 7 mph 47.8% 0.00 in 824 W/m2
09:24 75.1 °F 54.9 °F 30.18 in ENE 5.2 mph 6 mph 49.5% 0.00 in 824 W/m2
09:29 74.8 °F 54.7 °F 30.18 in ENE 7.4 mph 7 mph 49.5% 0.00 in 807 W/m2
09:34 74.6 °F 54.7 °F 30.18 in ENE 8.1 mph 9 mph 49.9% 0.00 in 802 W/m2
09:39 74.4 °F 55.6 °F 30.18 in ENE 8.2 mph 10 mph 52% 0.00 in 745 W/m2
09:44 74.5 °F 55.3 °F 30.18 in NE 7.6 mph 9 mph 51.2% 0.00 in 747 W/m2
09:49 74.5 °F 55.4 °F 30.17 in ENE 9.2 mph 9 mph 51.4% 0.00 in 756 W/m2
09:54 74.2 °F 54.3 °F 30.17 in ENE 8.8 mph 12 mph 50% 0.00 in 758 W/m2
09:59 74.2 °F 54.4 °F 30.18 in ENE 8.4 mph 10 mph 50% 0.00 in 766 W/m2
10:04 74.2 °F 53.6 °F 30.18 in East 8.8 mph 9 mph 48.6% 0.00 in 775 W/m2
10:09 74.3 °F 53.3 °F 30.18 in East 10.2 mph 9 mph 48% 0.00 in 800 W/m2
10:14 74.3 °F 53.1 °F 30.18 in ENE 8.4 mph 12 mph 47.6% 0.00 in 821 W/m2
10:19 74.5 °F 54.5 °F 30.18 in East 11.4 mph 10 mph 49.9% 0.00 in 835 W/m2
10:24 74.6 °F 54.5 °F 30.18 in ENE 9.6 mph 13 mph 49.7% 0.00 in 849 W/m2
10:29 74.8 °F 54.4 °F 30.18 in East 8.8 mph 13 mph 49.1% 0.00 in 912 W/m2
10:34 74.9 °F 54.1 °F 30.18 in ENE 10.9 mph 12 mph 48.3% 0.00 in 902 W/m2
10:39 74.8 °F 54.5 °F 30.18 in ENE 10.2 mph 13 mph 49.4% 0.00 in 868 W/m2
10:44 74.5 °F 54.6 °F 30.18 in ENE 10.4 mph 12 mph 50% 0.00 in 907 W/m2
10:49 74.3 °F 54.1 °F 30.18 in ENE 9.2 mph 13 mph 49.3% 0.00 in 974 W/m2
10:54 74.5 °F 54.5 °F 30.18 in ENE 5.6 mph 12 mph 49.8% 0.00 in 1062 W/m2
10:59 75.2 °F 54.3 °F 30.18 in NE 6.2 mph 7 mph 48.3% 0.00 in 1062 W/m2
11:04 75.8 °F 54.7 °F 30.18 in NNE 4.4 mph 8 mph 48% 0.00 in 411 W/m2
11:09 75.7 °F 52.8 °F 30.18 in ENE 4.2 mph 7 mph 44.9% 0.00 in 223 W/m2
11:14 75.4 °F 53.5 °F 30.19 in ENE 6.1 mph 6 mph 46.4% 0.00 in 174 W/m2
11:19 74.8 °F 52.8 °F 30.19 in NNE 7.4 mph 9 mph 46.3% 0.00 in 151 W/m2
11:24 74.4 °F 52.3 °F 30.19 in NNE 7.1 mph 8 mph 46% 0.00 in 146 W/m2
11:29 74.3 °F 52.5 °F 30.18 in ENE 3 mph 9 mph 46.4% 0.00 in 158 W/m2
11:34 74.3 °F 52.2 °F 30.18 in NE 3.8 mph 4 mph 46% 0.00 in 169 W/m2
11:39 74.1 °F 52.4 °F 30.19 in NE 3.3 mph 5 mph 46.6% 0.00 in 186 W/m2
11:44 74.1 °F 53.5 °F 30.19 in NW 4.3 mph 4.8 mph 48.5% 0.00 in 241 W/m2
11:49 74.1 °F 54.7 °F 30.18 in NNW 5.4 mph 5.2 mph 50.8% 0.00 in 710 W/m2
11:54 74.3 °F 55.3 °F 30.18 in North 6.4 mph 6.9 mph 51.6% 0.00 in 1000 W/m2
11:59 74.7 °F 55.6 °F 30.18 in North 7.3 mph 9 mph 51.5% 0.00 in 1034 W/m2
12:04 75.2 °F 55.5 °F 30.18 in NNE 8.6 mph 9 mph 50.3% 0.00 in 1020 W/m2
12:09 75.9 °F 55.4 °F 30.18 in NNE 7.5 mph 10 mph 49.1% 0.00 in 1005 W/m2
12:14 76.5 °F 55.2 °F 30.18 in North 6.7 mph 10 mph 47.6% 0.00 in 997 W/m2
12:19 77.1 °F 55.7 °F 30.18 in ENE 7.5 mph 10 mph 47.7% 0.00 in 981 W/m2
12:24 76.9 °F 55.7 °F 30.18 in NE 8.5 mph 8 mph 48.1% 0.00 in 970 W/m2
12:29 77 °F 56 °F 30.18 in East 5 mph 13 mph 48.3% 0.00 in 960 W/m2
12:34 77.5 °F 56.2 °F 30.18 in NE 9 mph 8.2 mph 47.8% 0.00 in 958 W/m2
12:39 77.6 °F 55.4 °F 30.18 in NE 13.2 mph 12 mph 46.2% 0.00 in 951 W/m2
12:44 77.6 °F 55.2 °F 30.18 in ENE 9.9 mph 17 mph 46% 0.00 in 953 W/m2
12:49 77.8 °F 54.1 °F 30.17 in ENE 11.2 mph 12 mph 44.1% 0.00 in 953 W/m2
12:54 77.9 °F 54.8 °F 30.17 in East 7.6 mph 12 mph 45% 0.00 in 956 W/m2
12:59 77.9 °F 55.2 °F 30.17 in ENE 11.3 mph 15 mph 45.6% 0.00 in 951 W/m2
13:04 77.9 °F 55.5 °F 30.17 in ENE 9.1 mph 12 mph 46% 0.00 in 947 W/m2
13:09 77.8 °F 55.1 °F 30.17 in ENE 9.4 mph 12 mph 45.5% 0.00 in 954 W/m2
13:14 78.6 °F 55.5 °F 30.17 in ENE 8 mph 12 mph 45% 0.00 in 947 W/m2
13:19 78.4 °F 54 °F 30.17 in NE 9.6 mph 14 mph 42.8% 0.00 in 947 W/m2
13:24 78.4 °F 53.3 °F 30.17 in NE 7.7 mph 10 mph 41.9% 0.00 in 949 W/m2
13:29 78.5 °F 53.2 °F 30.17 in ENE 9 mph 12 mph 41.7% 0.00 in 946 W/m2
13:34 78.7 °F 52.8 °F 30.16 in ENE 4.8 mph 12 mph 40.6% 0.00 in 946 W/m2
13:39 79.2 °F 53.5 °F 30.16 in ENE 6.8 mph 7.3 mph 41.1% 0.00 in 944 W/m2
13:44 79.8 °F 54.2 °F 30.16 in ENE 6.1 mph 9 mph 41.3% 0.00 in 951 W/m2
13:49 80.3 °F 53.5 °F 30.16 in East 7.4 mph 8 mph 39.6% 0.00 in 956 W/m2
13:54 80.3 °F 53.9 °F 30.16 in ENE 8 mph 9 mph 40.1% 0.00 in 1002 W/m2
13:59 79.7 °F 53.1 °F 30.16 in ENE 9.9 mph 10.3 mph 39.9% 0.00 in 1016 W/m2
14:04 79.2 °F 53.1 °F 30.15 in NNE 7.3 mph 12 mph 40.4% 0.00 in 457 W/m2
14:09 79 °F 52.9 °F 30.15 in NNE 6 mph 10 mph 40.4% 0.00 in 281 W/m2
14:14 78.7 °F 53.2 °F 30.15 in ENE 5 mph 7 mph 41.4% 0.00 in 346 W/m2
14:19 78.7 °F 53.4 °F 30.15 in NE 3.2 mph 6 mph 41.6% 0.00 in 482 W/m2
14:24 79.1 °F 53.5 °F 30.15 in ENE 6.4 mph 6.7 mph 41.1% 0.00 in 482 W/m2
14:29 78.7 °F 53 °F 30.15 in ENE 3.5 mph 10 mph 41% 0.00 in 239 W/m2
14:34 78.6 °F 53.2 °F 30.15 in NE 3.4 mph 4 mph 41.4% 0.00 in 216 W/m2
14:39 78.4 °F 52.7 °F 30.15 in East 3 mph 4 mph 41% 0.00 in 218 W/m2
14:44 78.3 °F 53.3 °F 30.14 in NE 4.7 mph 6.3 mph 42% 0.00 in 216 W/m2
14:49 78 °F 53.4 °F 30.14 in NE 5.3 mph 7 mph 42.5% 0.00 in 206 W/m2
14:54 77.8 °F 53.1 °F 30.14 in NE 5.4 mph 7 mph 42.2% 0.00 in 200 W/m2
14:59 77.5 °F 53.2 °F 30.14 in NE 4.1 mph 7 mph 43% 0.00 in 195 W/m2
15:04 77.6 °F 53.1 °F 30.14 in NE 4.5 mph 5 mph 42.6% 0.00 in 185 W/m2
15:09 77.5 °F 52.8 °F 30.14 in North 3.3 mph 6 mph 42.3% 0.00 in 171 W/m2
15:14 77.7 °F 53.3 °F 30.14 in North 2.4 mph 3 mph 43% 0.00 in 155 W/m2
15:19 77.8 °F 53.2 °F 30.14 in North 2.7 mph 3 mph 42.6% 0.00 in 149 W/m2
15:24 77.8 °F 53.4 °F 30.13 in NNE 3.3 mph 3 mph 42.9% 0.00 in 153 W/m2
15:29 77.8 °F 53.4 °F 30.13 in North 3.2 mph 4 mph 42.9% 0.00 in 174 W/m2
15:34 77.6 °F 52.7 °F 30.13 in NNE 3.1 mph 3 mph 42% 0.00 in 211 W/m2
15:39 77.6 °F 53 °F 30.13 in North 3.1 mph 3 mph 42.4% 0.00 in 306 W/m2
15:44 77.9 °F 54.9 °F 30.13 in NNW 2.8 mph 3 mph 45.1% 0.00 in 534 W/m2
15:49 78.4 °F 55.6 °F 30.13 in NNW 3.6 mph 4.6 mph 45.5% 0.00 in 534 W/m2
15:54 78.5 °F 54.4 °F 30.13 in NNE 3.8 mph 5 mph 43.3% 0.00 in 418 W/m2
15:59 78.6 °F 53.1 °F 30.13 in ENE 3.5 mph 4 mph 41.3% 0.00 in 315 W/m2
16:04 78.4 °F 53 °F 30.13 in ENE 4.7 mph 4.2 mph 41.4% 0.00 in 287 W/m2
16:09 78.3 °F 52.9 °F 30.14 in NE 3.2 mph 6 mph 41.4% 0.00 in 274 W/m2
16:14 78.4 °F 53.1 °F 30.14 in NE 1.7 mph 4 mph 41.6% 0.00 in 267 W/m2
Rockcreek-Hillcrest Superior, Colorado, USA
Compliments of Weather Underground - 2 mb